createdAt,value
2022-11-13T00:01:25.177Z,94959.00
2022-11-13T00:03:52.404Z,94966.00
2022-11-13T00:06:20.063Z,94965.00
2022-11-13T00:08:47.819Z,94966.00
2022-11-13T00:11:18.740Z,94967.00
2022-11-13T00:13:49.054Z,94967.00
2022-11-13T00:16:21.493Z,94957.00
2022-11-13T00:18:48.848Z,94955.00
2022-11-13T00:21:27.231Z,94960.00
2022-11-13T00:23:58.000Z,94956.00
2022-11-13T00:26:30.558Z,94957.00
2022-11-13T00:29:02.322Z,94952.00
2022-11-13T00:31:32.388Z,94950.00
2022-11-13T00:34:19.582Z,94947.00
2022-11-13T00:36:49.095Z,94939.00
2022-11-13T00:39:18.036Z,94928.00
2022-11-13T00:41:47.550Z,94925.00
2022-11-13T00:44:16.504Z,94925.00
2022-11-13T00:46:43.366Z,94923.00
2022-11-13T00:49:10.279Z,94918.00
2022-11-13T00:51:37.221Z,94918.00
2022-11-13T00:54:04.584Z,94915.00
2022-11-13T00:56:31.461Z,94919.00
2022-11-13T00:58:58.317Z,94917.00
2022-11-13T01:01:25.384Z,94917.00
2022-11-13T01:03:54.790Z,94916.00
2022-11-13T01:06:25.410Z,94919.00
2022-11-13T01:08:56.786Z,94906.00
2022-11-13T01:11:28.659Z,94917.00
2022-11-13T01:13:56.041Z,94913.00
2022-11-13T01:16:28.829Z,94899.00
2022-11-13T01:19:01.180Z,94910.00
2022-11-13T01:21:28.347Z,94898.00
2022-11-13T01:23:56.268Z,94904.00
2022-11-13T01:26:30.740Z,94896.00
2022-11-13T01:28:59.612Z,94887.00
2022-11-13T01:31:31.125Z,94885.00
2022-11-13T01:34:00.633Z,94884.00
2022-11-13T01:36:31.207Z,94877.00
2022-11-13T01:39:01.248Z,94881.00
2022-11-13T01:41:32.564Z,94865.00
2022-11-13T01:44:03.221Z,94863.00
2022-11-13T01:46:39.243Z,94863.00
2022-11-13T01:49:11.777Z,94864.00
2022-11-13T01:51:51.251Z,94854.00
2022-11-13T01:54:26.094Z,94850.00
2022-11-13T01:56:55.243Z,94844.00
2022-11-13T01:59:34.990Z,94847.00
2022-11-13T02:02:02.359Z,94836.00
2022-11-13T02:04:30.842Z,94835.00
2022-11-13T02:07:16.223Z,94833.00
2022-11-13T02:09:50.572Z,94831.00
2022-11-13T02:12:25.737Z,94840.00
2022-11-13T02:14:54.745Z,94837.00
2022-11-13T02:17:59.190Z,94835.00
2022-11-13T02:21:04.720Z,94828.00
2022-11-13T02:23:54.569Z,94826.00
2022-11-13T02:26:25.356Z,94823.00
2022-11-13T02:28:54.553Z,94818.00
2022-11-13T02:31:21.418Z,94813.00
2022-11-13T02:33:48.352Z,94817.00
2022-11-13T02:36:16.416Z,94811.00
2022-11-13T02:38:43.991Z,94818.00
2022-11-13T02:41:13.394Z,94809.00
2022-11-13T02:43:40.231Z,94799.00
2022-11-13T02:46:09.631Z,94795.00
2022-11-13T02:48:38.811Z,94790.00
2022-11-13T02:51:05.884Z,94793.00
2022-11-13T02:53:33.039Z,94790.00
2022-11-13T02:55:59.939Z,94790.00
2022-11-13T02:58:27.148Z,94790.00
2022-11-13T03:00:54.210Z,94791.00
2022-11-13T03:03:55.920Z,94795.00
2022-11-13T03:06:14.676Z,94794.00
2022-11-13T03:08:41.530Z,94790.00
2022-11-13T03:11:14.964Z,94797.00
2022-11-13T03:13:41.854Z,94794.00
2022-11-13T03:16:15.312Z,94788.00
2022-11-13T03:18:44.693Z,94783.00
2022-11-13T03:21:17.641Z,94786.00
2022-11-13T03:23:45.304Z,94781.00
2022-11-13T03:26:15.951Z,94785.00
2022-11-13T03:28:48.125Z,94783.00
2022-11-13T03:31:15.391Z,94752.00
2022-11-13T03:33:44.598Z,94781.00
2022-11-13T03:36:11.773Z,94780.00
2022-11-13T03:38:39.145Z,94773.00
2022-11-13T03:41:08.119Z,94788.00
2022-11-13T03:43:34.989Z,94788.00
2022-11-13T03:46:01.996Z,94776.00
2022-11-13T03:48:32.011Z,94774.00
2022-11-13T03:50:59.341Z,94781.00
2022-11-13T03:53:26.275Z,94774.00
2022-11-13T03:55:53.472Z,94788.00
2022-11-13T03:58:22.582Z,94779.00
2022-11-13T04:00:49.867Z,94759.00
2022-11-13T04:03:16.917Z,94771.00
2022-11-13T04:05:44.096Z,94753.00
2022-11-13T04:08:10.953Z,94765.00
2022-11-13T04:10:40.480Z,94756.00
2022-11-13T04:13:08.205Z,94750.00
2022-11-13T04:15:37.964Z,94748.00
2022-11-13T04:18:05.368Z,94744.00
2022-11-13T04:20:32.441Z,94739.00
2022-11-13T04:23:07.729Z,94733.00
2022-11-13T04:25:34.570Z,94730.00
2022-11-13T04:28:01.411Z,94733.00
2022-11-13T04:30:28.304Z,94723.00
2022-11-13T04:32:57.589Z,94723.00
2022-11-13T04:35:27.048Z,94721.00
2022-11-13T04:37:58.791Z,94723.00
2022-11-13T04:40:25.679Z,94728.00
2022-11-13T04:42:58.159Z,94713.00
2022-11-13T04:45:28.144Z,94714.00
2022-11-13T04:47:57.152Z,94718.00
2022-11-13T04:50:27.567Z,94719.00
2022-11-13T04:52:54.433Z,94720.00
2022-11-13T04:55:23.500Z,94707.00
2022-11-13T04:57:54.664Z,94709.00
2022-11-13T05:00:21.774Z,94708.00
2022-11-13T05:02:51.608Z,94712.00
2022-11-13T05:05:20.716Z,94711.00
2022-11-13T05:07:49.647Z,94703.00
2022-11-13T05:10:16.712Z,94700.00
2022-11-13T05:12:43.528Z,94700.00
2022-11-13T05:15:10.544Z,94678.00
2022-11-13T05:17:37.410Z,94685.00
2022-11-13T05:20:05.221Z,94685.00
2022-11-13T05:22:32.154Z,94672.00
2022-11-13T05:25:01.467Z,94677.00
2022-11-13T05:27:28.292Z,94664.00
2022-11-13T05:29:55.170Z,94668.00
2022-11-13T05:32:24.289Z,94665.00
2022-11-13T05:34:51.106Z,94666.00
2022-11-13T05:37:18.226Z,94665.00
2022-11-13T05:39:45.110Z,94665.00
2022-11-13T05:42:11.950Z,94664.00
2022-11-13T05:44:38.784Z,94672.00
2022-11-13T05:47:05.659Z,94666.00
2022-11-13T05:49:32.602Z,94661.00
2022-11-13T05:52:01.595Z,94670.00
2022-11-13T05:54:30.896Z,94668.00
2022-11-13T05:57:02.290Z,94661.00
2022-11-13T05:59:31.481Z,94666.00
2022-11-13T06:02:04.219Z,94661.00
2022-11-13T06:04:33.505Z,94653.00
2022-11-13T06:07:03.518Z,94653.00
2022-11-13T06:09:30.617Z,94651.00
2022-11-13T06:11:57.491Z,94634.00
2022-11-13T06:14:24.647Z,94639.00
2022-11-13T06:16:51.533Z,94634.00
2022-11-13T06:19:20.586Z,94633.00
2022-11-13T06:21:47.576Z,94645.00
2022-11-13T06:24:14.449Z,94640.00
2022-11-13T06:26:43.674Z,94646.00
2022-11-13T06:29:13.196Z,94636.00
2022-11-13T06:31:40.557Z,94632.00
2022-11-13T06:34:08.053Z,94631.00
2022-11-13T06:36:37.194Z,94621.00
2022-11-13T06:39:09.718Z,94630.00
2022-11-13T06:41:39.043Z,94630.00
2022-11-13T06:44:05.907Z,94635.00
2022-11-13T06:46:35.139Z,94628.00
2022-11-13T06:49:02.064Z,94619.00
2022-11-13T06:51:31.272Z,94621.00
2022-11-13T06:53:58.518Z,94622.00
2022-11-13T06:56:26.009Z,94616.00
2022-11-13T06:58:57.035Z,94609.00
2022-11-13T07:01:26.011Z,94612.00
2022-11-13T07:03:53.650Z,94610.00
2022-11-13T07:06:24.459Z,94611.00
2022-11-13T07:08:54.725Z,94607.00
2022-11-13T07:11:24.239Z,94598.00
2022-11-13T07:13:53.681Z,94602.00
2022-11-13T07:16:23.702Z,94608.00
2022-11-13T07:18:53.977Z,94598.00
2022-11-13T07:21:26.113Z,94601.00
2022-11-13T07:23:53.033Z,94600.00
2022-11-13T07:26:25.357Z,94608.00
2022-11-13T07:28:54.716Z,94611.00
2022-11-13T07:31:22.014Z,94613.00
2022-11-13T07:33:50.291Z,94616.00
2022-11-13T07:36:17.187Z,94609.00
2022-11-13T07:38:44.116Z,94620.00
2022-11-13T07:41:10.956Z,94623.00
2022-11-13T07:43:37.977Z,94619.00
2022-11-13T07:46:04.957Z,94622.00
2022-11-13T07:48:32.220Z,94620.00
2022-11-13T07:51:05.145Z,94618.00
2022-11-13T07:53:32.096Z,94614.00
2022-11-13T07:56:03.838Z,94606.00
2022-11-13T07:58:33.272Z,94604.00
2022-11-13T08:01:06.044Z,94614.00
2022-11-13T08:03:33.281Z,94600.00
2022-11-13T08:06:05.705Z,94601.00
2022-11-13T08:08:33.393Z,94601.00
2022-11-13T08:11:11.515Z,94599.00
2022-11-13T08:13:38.834Z,94594.00
2022-11-13T08:16:11.220Z,94599.00
2022-11-13T08:18:38.159Z,94592.00
2022-11-13T08:21:13.598Z,94585.00
2022-11-13T08:23:43.136Z,94578.00
2022-11-13T08:26:13.442Z,94584.00
2022-11-13T08:28:40.726Z,94562.00
2022-11-13T08:31:12.505Z,94578.00
2022-11-13T08:33:42.554Z,94565.00
2022-11-13T08:36:15.057Z,94568.00
2022-11-13T08:38:42.008Z,94562.00
2022-11-13T08:41:11.142Z,94558.00
2022-11-13T08:43:38.086Z,94553.00
2022-11-13T08:46:05.592Z,94541.00
2022-11-13T08:48:37.769Z,94529.00
2022-11-13T08:51:07.449Z,94543.00
2022-11-13T08:53:34.347Z,94537.00
2022-11-13T08:56:02.754Z,94525.00
2022-11-13T08:58:29.848Z,94535.00
2022-11-13T09:01:01.912Z,94536.00
2022-11-13T09:03:28.858Z,94536.00
2022-11-13T09:05:55.783Z,94535.00
2022-11-13T09:08:22.709Z,94538.00
2022-11-13T09:10:49.571Z,94527.00
2022-11-13T09:13:16.453Z,94528.00
2022-11-13T09:15:53.407Z,94535.00
2022-11-13T09:18:22.503Z,94537.00
2022-11-13T09:20:49.419Z,94532.00
2022-11-13T09:23:20.805Z,94535.00
2022-11-13T09:25:50.630Z,94535.00
2022-11-13T09:28:17.644Z,94544.00
2022-11-13T09:30:44.662Z,94554.00
2022-11-13T09:33:15.517Z,94533.00
2022-11-13T09:35:43.403Z,94543.00
2022-11-13T09:38:15.958Z,94530.00
2022-11-13T09:41:00.263Z,94526.00
2022-11-13T09:43:33.875Z,94523.00
2022-11-13T09:46:08.072Z,94503.00
2022-11-13T09:48:40.183Z,94523.00
2022-11-13T09:51:19.111Z,94530.00
2022-11-13T09:53:48.392Z,94520.00
2022-11-13T09:56:32.463Z,94517.00
2022-11-13T09:59:26.142Z,94531.00
2022-11-13T10:02:29.834Z,94548.00
2022-11-13T10:04:59.692Z,94540.00
2022-11-13T10:07:51.016Z,94548.00
2022-11-13T10:10:36.794Z,94538.00
2022-11-13T10:13:10.762Z,94543.00
2022-11-13T10:15:38.383Z,94530.00
2022-11-13T10:18:29.185Z,94536.00
2022-11-13T10:21:21.837Z,94529.00
2022-11-13T10:23:56.965Z,94536.00
2022-11-13T10:26:29.973Z,94524.00
2022-11-13T10:29:11.488Z,94512.00
2022-11-13T10:31:51.012Z,94493.00
2022-11-13T10:34:21.833Z,94479.00
2022-11-13T10:37:14.057Z,94473.00
2022-11-13T10:39:49.707Z,94461.00
2022-11-13T10:42:28.126Z,94462.00
2022-11-13T10:45:00.343Z,94467.00
2022-11-13T10:48:02.117Z,94460.00
2022-11-13T10:50:25.682Z,94471.00
2022-11-13T10:52:55.332Z,94458.00
2022-11-13T10:55:31.065Z,94459.00
2022-11-13T10:58:01.185Z,94444.00
2022-11-13T11:00:34.414Z,94444.00
2022-11-13T11:03:01.929Z,94441.00
2022-11-13T11:05:29.605Z,94441.00
2022-11-13T11:07:57.611Z,94443.00
2022-11-13T11:10:54.893Z,94451.00
2022-11-13T11:13:28.617Z,94434.00
2022-11-13T11:16:01.846Z,94432.00
2022-11-13T11:18:45.860Z,94441.00
2022-11-13T11:21:30.216Z,94423.00
2022-11-13T11:24:29.796Z,94423.00
2022-11-13T11:27:39.177Z,94427.00
2022-11-13T11:30:32.558Z,94410.00
2022-11-13T11:33:17.501Z,94423.00
2022-11-13T11:36:03.882Z,94415.00
2022-11-13T11:38:45.263Z,94399.00
2022-11-13T11:41:20.448Z,94403.00
2022-11-13T11:44:28.740Z,94403.00
2022-11-13T11:46:56.142Z,94385.00
2022-11-13T11:49:25.815Z,94367.00
2022-11-13T11:52:14.885Z,94388.00
2022-11-13T11:55:12.882Z,94379.00
2022-11-13T11:58:07.501Z,94380.00
2022-11-13T12:00:40.608Z,94366.00
2022-11-13T12:03:40.413Z,94366.00
2022-11-13T12:06:32.101Z,94343.00
2022-11-13T12:09:27.890Z,94347.00
2022-11-13T12:11:57.854Z,94352.00
2022-11-13T12:14:30.809Z,94351.00
2022-11-13T12:17:21.667Z,94343.00
2022-11-13T12:20:31.370Z,94349.00
2022-11-13T12:23:12.309Z,94353.00
2022-11-13T12:25:49.114Z,94353.00
2022-11-13T12:28:55.679Z,94337.00
2022-11-13T12:31:39.527Z,94326.00
2022-11-13T12:34:43.630Z,94318.00
2022-11-13T12:37:34.573Z,94306.00
2022-11-13T12:40:37.564Z,94323.00
2022-11-13T12:43:30.273Z,94321.00
2022-11-13T12:46:07.131Z,94326.00
2022-11-13T12:48:44.895Z,94316.00
2022-11-13T12:51:18.912Z,94312.00
2022-11-13T12:53:52.499Z,94316.00
2022-11-13T12:56:28.563Z,94326.00
2022-11-13T12:59:30.576Z,94316.00
2022-11-13T13:02:06.930Z,94315.00
2022-11-13T13:05:13.463Z,94295.00
2022-11-13T13:08:04.583Z,94281.00
2022-11-13T13:10:31.864Z,94278.00
2022-11-13T13:13:12.407Z,94267.00
2022-11-13T13:15:49.059Z,94275.00
2022-11-13T13:18:21.541Z,94265.00
2022-11-13T13:20:57.662Z,94264.00
2022-11-13T13:23:43.560Z,94258.00
2022-11-13T13:26:13.615Z,94267.00
2022-11-13T13:28:43.636Z,94275.00
2022-11-13T13:31:37.348Z,94275.00
2022-11-13T13:34:37.839Z,94276.00
2022-11-13T13:37:32.713Z,94286.00
2022-11-13T13:40:14.698Z,94288.00
2022-11-13T13:43:21.400Z,94284.00
2022-11-13T13:46:21.793Z,94280.00
2022-11-13T13:48:53.205Z,94269.00
2022-11-13T13:51:52.780Z,94285.00
2022-11-13T13:54:26.333Z,94279.00
2022-11-13T13:56:54.793Z,94277.00
2022-11-13T13:59:33.368Z,94277.00
2022-11-13T14:02:15.739Z,94263.00
2022-11-13T14:04:49.070Z,94267.00
2022-11-13T14:07:33.728Z,94265.00
2022-11-13T14:10:08.477Z,94255.00
2022-11-13T14:12:35.472Z,94261.00
2022-11-13T14:15:15.242Z,94265.00
2022-11-13T14:17:45.111Z,94273.00
2022-11-13T14:20:12.612Z,94268.00
2022-11-13T14:22:40.917Z,94264.00
2022-11-13T14:25:27.663Z,94275.00
2022-11-13T14:27:54.606Z,94273.00
2022-11-13T14:30:26.102Z,94268.00
2022-11-13T14:32:55.862Z,94271.00
2022-11-13T14:35:26.461Z,94274.00
2022-11-13T14:37:55.214Z,94272.00
2022-11-13T14:40:31.616Z,94269.00
2022-11-13T14:43:03.286Z,94238.00
2022-11-13T14:45:32.666Z,94238.00
2022-11-13T14:48:32.584Z,94236.00
2022-11-13T14:51:09.956Z,94239.00
2022-11-13T14:53:41.444Z,94248.00
2022-11-13T14:56:11.794Z,94252.00
2022-11-13T14:58:48.898Z,94261.00
2022-11-13T15:01:18.657Z,94254.00
2022-11-13T15:03:49.695Z,94242.00
2022-11-13T15:06:26.383Z,94248.00
2022-11-13T15:09:00.430Z,94248.00
2022-11-13T15:11:28.004Z,94240.00
2022-11-13T15:13:54.982Z,94216.00
2022-11-13T15:16:31.367Z,94235.00
2022-11-13T15:19:03.919Z,94235.00
2022-11-13T15:21:35.843Z,94234.00
2022-11-13T15:24:05.816Z,94234.00
2022-11-13T15:26:32.705Z,94228.00
2022-11-13T15:28:59.690Z,94236.00
2022-11-13T15:31:40.891Z,94244.00
2022-11-13T15:34:14.702Z,94265.00
2022-11-13T15:36:45.781Z,94264.00
2022-11-13T15:39:23.056Z,94262.00
2022-11-13T15:41:52.626Z,94262.00
2022-11-13T15:44:22.627Z,94253.00
2022-11-13T15:46:49.499Z,94263.00
2022-11-13T15:49:18.622Z,94271.00
2022-11-13T15:51:46.481Z,94275.00
2022-11-13T15:54:40.013Z,94289.00
2022-11-13T15:57:17.033Z,94285.00
2022-11-13T15:59:46.391Z,94298.00
2022-11-13T16:02:15.821Z,94294.00
2022-11-13T16:04:55.990Z,94290.00
2022-11-13T16:07:30.184Z,94296.00
2022-11-13T16:09:57.083Z,94291.00
2022-11-13T16:12:24.067Z,94276.00
2022-11-13T16:14:53.418Z,94283.00
2022-11-13T16:17:23.474Z,94279.00
2022-11-13T16:19:54.650Z,94285.00
2022-11-13T16:22:30.378Z,94275.00
2022-11-13T16:24:57.274Z,94270.00
2022-11-13T16:27:30.817Z,94271.00
2022-11-13T16:30:05.295Z,94271.00
2022-11-13T16:32:33.633Z,94275.00
2022-11-13T16:35:00.495Z,94278.00
2022-11-13T16:37:27.432Z,94277.00
2022-11-13T16:39:54.353Z,94286.00
2022-11-13T16:42:21.216Z,94267.00
2022-11-13T16:44:48.150Z,94263.00
2022-11-13T16:47:26.203Z,94260.00
2022-11-13T16:49:53.289Z,94261.00
2022-11-13T16:52:22.760Z,94274.00
2022-11-13T16:54:51.502Z,94262.00
2022-11-13T16:57:20.577Z,94272.00
2022-11-13T16:59:47.429Z,94265.00
2022-11-13T17:02:17.959Z,94262.00
2022-11-13T17:04:45.230Z,94271.00
2022-11-13T17:07:15.173Z,94265.00
2022-11-13T17:09:58.814Z,94263.00
2022-11-13T17:12:34.993Z,94256.00
2022-11-13T17:15:01.915Z,94251.00
2022-11-13T17:17:28.770Z,94245.00
2022-11-13T17:19:55.828Z,94240.00
2022-11-13T17:22:22.817Z,94229.00
2022-11-13T17:24:52.813Z,94230.00
2022-11-13T17:27:19.756Z,94232.00
2022-11-13T17:29:46.664Z,94230.00
2022-11-13T17:32:13.540Z,94227.00
2022-11-13T17:34:40.501Z,94236.00
2022-11-13T17:37:07.450Z,94229.00
2022-11-13T17:39:36.781Z,94224.00
2022-11-13T17:42:03.766Z,94236.00
2022-11-13T17:44:33.088Z,94238.00
2022-11-13T17:46:59.953Z,94234.00
2022-11-13T17:49:26.947Z,94234.00
2022-11-13T17:51:53.822Z,94245.00
2022-11-13T17:54:25.236Z,94253.00
2022-11-13T17:56:52.083Z,94254.00
2022-11-13T17:59:21.145Z,94254.00
2022-11-13T18:01:50.554Z,94254.00
2022-11-13T18:04:17.484Z,94252.00
2022-11-13T18:06:47.016Z,94243.00
2022-11-13T18:09:13.946Z,94241.00
2022-11-13T18:11:40.826Z,94221.00
2022-11-13T18:14:08.944Z,94232.00
2022-11-13T18:16:38.474Z,94214.00
2022-11-13T18:19:09.296Z,94219.00
2022-11-13T18:21:37.263Z,94233.00
2022-11-13T18:24:09.734Z,94224.00
2022-11-13T18:26:39.194Z,94221.00
2022-11-13T18:29:08.587Z,94227.00
2022-11-13T18:31:40.076Z,94244.00
2022-11-13T18:34:09.867Z,94230.00
2022-11-13T18:36:37.384Z,94232.00
2022-11-13T18:39:04.423Z,94230.00
2022-11-13T18:41:37.068Z,94242.00
2022-11-13T18:44:06.598Z,94245.00
2022-11-13T18:46:34.071Z,94257.00
2022-11-13T18:49:01.090Z,94265.00
2022-11-13T18:51:29.675Z,94257.00
2022-11-13T18:53:57.429Z,94234.00
2022-11-13T18:56:30.883Z,94256.00
2022-11-13T18:58:59.678Z,94259.00
2022-11-13T19:01:33.604Z,94251.00
2022-11-13T19:06:52.360Z,94219.00
2022-11-13T19:09:21.266Z,94200.00
2022-11-13T19:11:50.217Z,94207.00
2022-11-13T19:14:18.908Z,94208.00
2022-11-13T19:16:45.867Z,94219.00
2022-11-13T19:19:24.287Z,94211.00
2022-11-13T19:21:52.106Z,94231.00
2022-11-13T19:24:21.182Z,94234.00
2022-11-13T19:26:50.334Z,94227.00
2022-11-13T19:29:20.332Z,94226.00
2022-11-13T19:31:48.542Z,94218.00
2022-11-13T19:34:15.588Z,94207.00
2022-11-13T19:36:46.444Z,94214.00
2022-11-13T19:39:13.432Z,94204.00
2022-11-13T19:41:42.589Z,94205.00
2022-11-13T19:44:09.918Z,94208.00
2022-11-13T19:46:38.341Z,94219.00
2022-11-13T19:49:05.345Z,94221.00
2022-11-13T19:51:32.381Z,94225.00
2022-11-13T19:54:00.308Z,94213.00
2022-11-13T19:56:30.735Z,94214.00
2022-11-13T19:59:02.533Z,94205.00
2022-11-13T20:01:32.890Z,94207.00
2022-11-13T20:04:02.613Z,94205.00
2022-11-13T20:06:31.917Z,94209.00
2022-11-13T20:09:02.653Z,94205.00
2022-11-13T20:11:30.447Z,94186.00
2022-11-13T20:13:57.662Z,94187.00
2022-11-13T20:16:25.801Z,94191.00
2022-11-13T20:18:57.807Z,94192.00
2022-11-13T20:21:27.299Z,94189.00
2022-11-13T20:24:00.878Z,94178.00
2022-11-13T20:26:30.854Z,94176.00
2022-11-13T20:28:57.752Z,94178.00
2022-11-13T20:31:25.807Z,94192.00
2022-11-13T20:33:55.890Z,94207.00
2022-11-13T20:36:25.468Z,94215.00
2022-11-13T20:38:59.955Z,94214.00
2022-11-13T20:41:29.414Z,94207.00
2022-11-13T20:44:01.928Z,94217.00
2022-11-13T20:46:32.385Z,94219.00
2022-11-13T20:49:01.831Z,94200.00
2022-11-13T20:51:29.508Z,94213.00
2022-11-13T20:53:59.024Z,94210.00
2022-11-13T20:56:26.587Z,94214.00
2022-11-13T20:58:56.057Z,94207.00
2022-11-13T21:01:30.600Z,94206.00
2022-11-13T21:03:59.467Z,94210.00
2022-11-13T21:06:26.556Z,94204.00
2022-11-13T21:08:56.182Z,94207.00
2022-11-13T21:11:29.552Z,94187.00
2022-11-13T21:14:00.714Z,94184.00
2022-11-13T21:16:30.431Z,94191.00
2022-11-13T21:18:59.669Z,94186.00
2022-11-13T21:21:28.880Z,94177.00
2022-11-13T21:23:57.769Z,94181.00
2022-11-13T21:26:28.385Z,94184.00
2022-11-13T21:29:00.224Z,94176.00
2022-11-13T21:31:27.785Z,94165.00
2022-11-13T21:33:57.583Z,94164.00
2022-11-13T21:36:29.015Z,94163.00
2022-11-13T21:38:57.073Z,94169.00
2022-11-13T21:41:28.560Z,94143.00
2022-11-13T21:43:55.411Z,94150.00
2022-11-13T21:46:27.489Z,94150.00
2022-11-13T21:49:10.286Z,94139.00
2022-11-13T21:51:42.408Z,94136.00
2022-11-13T21:54:09.758Z,94126.00
2022-11-13T21:56:39.690Z,94132.00
2022-11-13T21:59:11.746Z,94124.00
2022-11-13T22:01:39.023Z,94122.00
2022-11-13T22:04:06.627Z,94120.00
2022-11-13T22:06:37.669Z,94126.00
2022-11-13T22:09:20.144Z,94133.00
2022-11-13T22:11:49.889Z,94124.00
2022-11-13T22:14:17.586Z,94122.00
2022-11-13T22:16:48.727Z,94124.00
2022-11-13T22:19:23.818Z,94118.00
2022-11-13T22:21:56.106Z,94123.00
2022-11-13T22:24:23.104Z,94124.00
2022-11-13T22:26:51.368Z,94137.00
2022-11-13T22:29:18.257Z,94128.00
2022-11-13T22:31:45.184Z,94123.00
2022-11-13T22:34:14.696Z,94132.00
2022-11-13T22:36:41.577Z,94133.00
2022-11-13T22:39:11.582Z,94120.00
2022-11-13T22:41:40.612Z,94133.00
2022-11-13T22:44:11.819Z,94134.00
2022-11-13T22:46:39.130Z,94128.00
2022-11-13T22:49:09.081Z,94134.00
2022-11-13T22:51:41.655Z,94135.00
2022-11-13T22:54:11.813Z,94132.00
2022-11-13T22:56:43.017Z,94118.00
2022-11-13T22:59:13.964Z,94110.00
2022-11-13T23:01:42.987Z,94103.00
2022-11-13T23:04:15.913Z,94098.00
2022-11-13T23:06:45.329Z,94088.00
2022-11-13T23:09:12.295Z,94089.00
2022-11-13T23:11:44.256Z,94093.00
2022-11-13T23:14:15.703Z,94087.00
2022-11-13T23:16:44.821Z,94074.00
2022-11-13T23:19:13.459Z,94078.00
2022-11-13T23:21:42.434Z,94079.00
2022-11-13T23:24:11.337Z,94077.00
2022-11-13T23:26:42.547Z,94077.00
2022-11-13T23:29:11.441Z,94068.00
2022-11-13T23:31:40.417Z,94073.00
2022-11-13T23:34:07.322Z,94073.00
2022-11-13T23:36:36.674Z,94083.00
2022-11-13T23:39:05.749Z,94068.00
2022-11-13T23:41:32.579Z,94066.00
2022-11-13T23:44:08.602Z,94070.00
2022-11-13T23:46:39.502Z,94070.00
2022-11-13T23:49:06.383Z,94066.00
2022-11-13T23:51:33.355Z,94049.00
2022-11-13T23:54:00.389Z,94057.00
2022-11-13T23:56:27.254Z,94056.00
2022-11-13T23:58:58.691Z,94050.00
